Terminal Aerodrome Forecast
Issued by NWS Tulsa, OK

Home | Current Version | Previous Version | Text Only | Print | Product List | Glossary On
Versions: 1 2 3 4 5 6 7 8 9 10 11 12
201
FTUS44 KTSA 121132
TAFFSM
TAF
KFSM 121132Z 1212/1312 VRB05KT P6SM FEW200
     FM121700 35010KT P6SM SCT120 SCT200
     FM130200 03008KT P6SM BKN120=

USA.gov is the U.S. government's official web portal to all federal, state and local government web resources and services.